sensor_id;sensor_type;location;lat;lon;timestamp;temperature;humidity
43665;DHT22;29263;48.172;11.484;2024-03-02T00:01:09;6.20;99.90
43665;DHT22;29263;48.172;11.484;2024-03-02T00:03:37;6.20;99.90
43665;DHT22;29263;48.172;11.484;2024-03-02T00:06:03;6.20;99.90
43665;DHT22;29263;48.172;11.484;2024-03-02T00:08:29;6.20;99.90
43665;DHT22;29263;48.172;11.484;2024-03-02T00:10:59;6.20;99.90
43665;DHT22;29263;48.172;11.484;2024-03-02T00:13:25;6.20;99.90
43665;DHT22;29263;48.172;11.484;2024-03-02T00:15:55;6.20;99.90
43665;DHT22;29263;48.172;11.484;2024-03-02T00:18:30;6.20;99.90
43665;DHT22;29263;48.172;11.484;2024-03-02T00:20:57;6.20;99.90
43665;DHT22;29263;48.172;11.484;2024-03-02T00:23:23;6.20;99.90
43665;DHT22;29263;48.172;11.484;2024-03-02T00:25:51;6.20;99.90
43665;DHT22;29263;48.172;11.484;2024-03-02T00:31:09;6.10;99.90
43665;DHT22;29263;48.172;11.484;2024-03-02T00:36:07;6.10;99.90
43665;DHT22;29263;48.172;11.484;2024-03-02T00:38:34;6.10;99.90
43665;DHT22;29263;48.172;11.484;2024-03-02T00:41:04;6.10;99.90
43665;DHT22;29263;48.172;11.484;2024-03-02T00:43:45;6.10;99.90
43665;DHT22;29263;48.172;11.484;2024-03-02T00:46:15;6.00;99.90
43665;DHT22;29263;48.172;11.484;2024-03-02T00:48:52;6.10;99.90
43665;DHT22;29263;48.172;11.484;2024-03-02T00:51:23;6.00;99.90
43665;DHT22;29263;48.172;11.484;2024-03-02T00:53:51;6.00;99.90
43665;DHT22;29263;48.172;11.484;2024-03-02T00:56:17;6.00;99.90
43665;DHT22;29263;48.172;11.484;2024-03-02T00:58:43;5.90;99.90
43665;DHT22;29263;48.172;11.484;2024-03-02T01:01:09;5.90;99.90
43665;DHT22;29263;48.172;11.484;2024-03-02T01:03:35;5.90;99.90
43665;DHT22;29263;48.172;11.484;2024-03-02T01:06:00;5.90;99.90
43665;DHT22;29263;48.172;11.484;2024-03-02T01:08:26;5.90;99.90
43665;DHT22;29263;48.172;11.484;2024-03-02T01:10:52;5.90;99.90
43665;DHT22;29263;48.172;11.484;2024-03-02T01:13:17;5.90;99.90
43665;DHT22;29263;48.172;11.484;2024-03-02T01:15:43;5.90;99.90
43665;DHT22;29263;48.172;11.484;2024-03-02T01:18:09;5.90;99.90
43665;DHT22;29263;48.172;11.484;2024-03-02T01:20:35;5.90;99.90
43665;DHT22;29263;48.172;11.484;2024-03-02T01:23:00;5.90;99.90
43665;DHT22;29263;48.172;11.484;2024-03-02T01:25:26;5.90;99.90
43665;DHT22;29263;48.172;11.484;2024-03-02T01:27:52;5.80;99.90
43665;DHT22;29263;48.172;11.484;2024-03-02T01:30:17;5.80;99.90
43665;DHT22;29263;48.172;11.484;2024-03-02T01:32:43;5.80;99.90
43665;DHT22;29263;48.172;11.484;2024-03-02T01:35:09;5.80;99.90
43665;DHT22;29263;48.172;11.484;2024-03-02T01:37:34;5.80;99.90
43665;DHT22;29263;48.172;11.484;2024-03-02T01:40:00;5.90;99.90
43665;DHT22;29263;48.172;11.484;2024-03-02T01:42:26;5.80;99.90
43665;DHT22;29263;48.172;11.484;2024-03-02T01:44:51;5.80;99.90
43665;DHT22;29263;48.172;11.484;2024-03-02T01:47:17;5.80;99.90
43665;DHT22;29263;48.172;11.484;2024-03-02T01:49:43;5.80;99.90
43665;DHT22;29263;48.172;11.484;2024-03-02T01:52:09;5.80;99.90
43665;DHT22;29263;48.172;11.484;2024-03-02T01:54:34;5.80;99.90
43665;DHT22;29263;48.172;11.484;2024-03-02T01:57:00;5.80;99.90
43665;DHT22;29263;48.172;11.484;2024-03-02T01:59:26;5.80;99.90
43665;DHT22;29263;48.172;11.484;2024-03-02T02:01:52;5.80;99.90
43665;DHT22;29263;48.172;11.484;2024-03-02T02:04:17;5.80;99.90
43665;DHT22;29263;48.172;11.484;2024-03-02T02:06:44;5.80;99.90
43665;DHT22;29263;48.172;11.484;2024-03-02T02:09:10;5.80;99.90
43665;DHT22;29263;48.172;11.484;2024-03-02T02:11:35;5.80;99.90
43665;DHT22;29263;48.172;11.484;2024-03-02T02:14:01;5.80;99.90
43665;DHT22;29263;48.172;11.484;2024-03-02T02:16:27;5.80;99.90
43665;DHT22;29263;48.172;11.484;2024-03-02T02:18:52;5.80;99.90
43665;DHT22;29263;48.172;11.484;2024-03-02T02:21:22;5.80;99.90
43665;DHT22;29263;48.172;11.484;2024-03-02T02:23:47;5.80;99.90
43665;DHT22;29263;48.172;11.484;2024-03-02T02:26:14;5.80;99.90
43665;DHT22;29263;48.172;11.484;2024-03-02T02:28:39;5.80;99.90
43665;DHT22;29263;48.172;11.484;2024-03-02T02:31:15;5.70;99.90
43665;DHT22;29263;48.172;11.484;2024-03-02T02:33:40;5.80;99.90
43665;DHT22;29263;48.172;11.484;2024-03-02T02:36:06;5.80;99.90
43665;DHT22;29263;48.172;11.484;2024-03-02T02:38:33;5.80;99.90
43665;DHT22;29263;48.172;11.484;2024-03-02T02:41:02;5.80;99.90
43665;DHT22;29263;48.172;11.484;2024-03-02T02:43:28;5.80;99.90
43665;DHT22;29263;48.172;11.484;2024-03-02T02:45:53;5.80;99.90
43665;DHT22;29263;48.172;11.484;2024-03-02T02:48:19;5.70;99.90
43665;DHT22;29263;48.172;11.484;2024-03-02T02:50:44;5.80;99.90
43665;DHT22;29263;48.172;11.484;2024-03-02T02:53:10;5.80;99.90
43665;DHT22;29263;48.172;11.484;2024-03-02T02:55:35;5.80;99.90
43665;DHT22;29263;48.172;11.484;2024-03-02T02:58:06;5.80;99.90
43665;DHT22;29263;48.172;11.484;2024-03-02T03:00:31;5.80;99.90
43665;DHT22;29263;48.172;11.484;2024-03-02T03:02:57;5.80;99.90
43665;DHT22;29263;48.172;11.484;2024-03-02T03:05:23;5.80;99.90
43665;DHT22;29263;48.172;11.484;2024-03-02T03:07:48;5.80;99.90
43665;DHT22;29263;48.172;11.484;2024-03-02T03:10:16;5.70;99.90
43665;DHT22;29263;48.172;11.484;2024-03-02T03:12:42;5.80;99.90
43665;DHT22;29263;48.172;11.484;2024-03-02T03:15:09;5.70;99.90
43665;DHT22;29263;48.172;11.484;2024-03-02T03:17:35;5.80;99.90
43665;DHT22;29263;48.172;11.484;2024-03-02T03:20:01;5.80;99.90
43665;DHT22;29263;48.172;11.484;2024-03-02T03:22:27;5.80;99.90
43665;DHT22;29263;48.172;11.484;2024-03-02T03:24:53;5.80;99.90
43665;DHT22;29263;48.172;11.484;2024-03-02T03:27:19;5.80;99.90
43665;DHT22;29263;48.172;11.484;2024-03-02T03:29:45;5.80;99.90
43665;DHT22;29263;48.172;11.484;2024-03-02T03:32:10;5.70;99.90
43665;DHT22;29263;48.172;11.484;2024-03-02T03:34:36;5.70;99.90
43665;DHT22;29263;48.172;11.484;2024-03-02T03:37:03;5.70;99.90
43665;DHT22;29263;48.172;11.484;2024-03-02T03:39:28;5.70;99.90
43665;DHT22;29263;48.172;11.484;2024-03-02T03:41:54;5.80;99.90
43665;DHT22;29263;48.172;11.484;2024-03-02T03:44:20;5.80;99.90
43665;DHT22;29263;48.172;11.484;2024-03-02T03:46:45;5.80;99.90
43665;DHT22;29263;48.172;11.484;2024-03-02T03:49:11;5.80;99.90
43665;DHT22;29263;48.172;11.484;2024-03-02T03:51:37;5.70;99.90
43665;DHT22;29263;48.172;11.484;2024-03-02T03:54:02;5.80;99.90
43665;DHT22;29263;48.172;11.484;2024-03-02T03:56:28;5.80;99.90
43665;DHT22;29263;48.172;11.484;2024-03-02T03:58:53;5.80;99.90
43665;DHT22;29263;48.172;11.484;2024-03-02T04:01:19;5.80;99.90
43665;DHT22;29263;48.172;11.484;2024-03-02T04:03:45;5.80;99.90
43665;DHT22;29263;48.172;11.484;2024-03-02T04:06:10;5.70;99.90
43665;DHT22;29263;48.172;11.484;2024-03-02T04:08:36;5.80;99.90
43665;DHT22;29263;48.172;11.484;2024-03-02T04:11:01;5.80;99.90
43665;DHT22;29263;48.172;11.484;2024-03-02T04:13:28;5.80;99.90
43665;DHT22;29263;48.172;11.484;2024-03-02T04:15:54;5.80;99.90
43665;DHT22;29263;48.172;11.484;2024-03-02T04:18:19;5.80;99.90
43665;DHT22;29263;48.172;11.484;2024-03-02T04:20:45;5.80;99.90
43665;DHT22;29263;48.172;11.484;2024-03-02T04:23:10;5.80;99.90
43665;DHT22;29263;48.172;11.484;2024-03-02T04:25:36;5.80;99.90
43665;DHT22;29263;48.172;11.484;2024-03-02T04:28:02;5.80;99.90
43665;DHT22;29263;48.172;11.484;2024-03-02T04:30:27;5.80;99.90
43665;DHT22;29263;48.172;11.484;2024-03-02T04:32:53;5.80;99.90
43665;DHT22;29263;48.172;11.484;2024-03-02T04:35:19;5.80;99.90
43665;DHT22;29263;48.172;11.484;2024-03-02T04:37:44;5.80;99.90
43665;DHT22;29263;48.172;11.484;2024-03-02T04:40:10;5.80;99.90
43665;DHT22;29263;48.172;11.484;2024-03-02T04:42:36;5.80;99.90
43665;DHT22;29263;48.172;11.484;2024-03-02T04:45:02;5.80;99.90
43665;DHT22;29263;48.172;11.484;2024-03-02T04:47:28;5.80;99.90
43665;DHT22;29263;48.172;11.484;2024-03-02T04:49:54;5.80;99.90
43665;DHT22;29263;48.172;11.484;2024-03-02T04:52:19;5.80;99.90
43665;DHT22;29263;48.172;11.484;2024-03-02T04:54:45;5.80;99.90
43665;DHT22;29263;48.172;11.484;2024-03-02T04:57:29;5.80;99.90
43665;DHT22;29263;48.172;11.484;2024-03-02T04:59:54;5.80;99.90
43665;DHT22;29263;48.172;11.484;2024-03-02T05:02:20;5.80;99.90
43665;DHT22;29263;48.172;11.484;2024-03-02T05:04:45;5.80;99.90
43665;DHT22;29263;48.172;11.484;2024-03-02T05:07:11;5.80;99.90
43665;DHT22;29263;48.172;11.484;2024-03-02T05:09:37;5.80;99.90
43665;DHT22;29263;48.172;11.484;2024-03-02T05:12:02;5.80;99.90
43665;DHT22;29263;48.172;11.484;2024-03-02T05:14:48;5.80;99.90
43665;DHT22;29263;48.172;11.484;2024-03-02T05:17:14;5.80;99.90
43665;DHT22;29263;48.172;11.484;2024-03-02T05:19:39;5.80;99.90
43665;DHT22;29263;48.172;11.484;2024-03-02T05:22:05;5.80;99.90
43665;DHT22;29263;48.172;11.484;2024-03-02T05:24:31;5.80;99.90
43665;DHT22;29263;48.172;11.484;2024-03-02T05:26:56;5.70;99.90
43665;DHT22;29263;48.172;11.484;2024-03-02T05:29:22;5.70;99.90
43665;DHT22;29263;48.172;11.484;2024-03-02T05:31:48;5.80;99.90
43665;DHT22;29263;48.172;11.484;2024-03-02T05:34:14;5.80;99.90
43665;DHT22;29263;48.172;11.484;2024-03-02T05:36:39;5.80;99.90
43665;DHT22;29263;48.172;11.484;2024-03-02T05:39:05;5.70;99.90
43665;DHT22;29263;48.172;11.484;2024-03-02T05:41:35;5.70;99.90
43665;DHT22;29263;48.172;11.484;2024-03-02T05:44:00;5.70;99.90
43665;DHT22;29263;48.172;11.484;2024-03-02T05:46:27;5.80;99.90
43665;DHT22;29263;48.172;11.484;2024-03-02T05:48:52;5.70;99.90
43665;DHT22;29263;48.172;11.484;2024-03-02T05:51:18;5.70;99.90
43665;DHT22;29263;48.172;11.484;2024-03-02T05:53:43;5.70;99.90
43665;DHT22;29263;48.172;11.484;2024-03-02T05:56:09;5.70;99.90
43665;DHT22;29263;48.172;11.484;2024-03-02T05:58:35;5.70;99.90
43665;DHT22;29263;48.172;11.484;2024-03-02T06:01:19;5.70;99.90
43665;DHT22;29263;48.172;11.484;2024-03-02T06:03:45;5.70;99.90
43665;DHT22;29263;48.172;11.484;2024-03-02T06:06:11;5.70;99.90
43665;DHT22;29263;48.172;11.484;2024-03-02T06:08:36;5.70;99.90
43665;DHT22;29263;48.172;11.484;2024-03-02T06:11:02;5.70;99.90
43665;DHT22;29263;48.172;11.484;2024-03-02T06:13:27;5.70;99.90
43665;DHT22;29263;48.172;11.484;2024-03-02T06:15:53;5.70;99.90
43665;DHT22;29263;48.172;11.484;2024-03-02T06:18:19;5.70;99.90
43665;DHT22;29263;48.172;11.484;2024-03-02T06:20:44;5.70;99.90
43665;DHT22;29263;48.172;11.484;2024-03-02T06:23:10;5.70;99.90
43665;DHT22;29263;48.172;11.484;2024-03-02T06:25:35;5.70;99.90
43665;DHT22;29263;48.172;11.484;2024-03-02T06:28:01;5.70;99.90
43665;DHT22;29263;48.172;11.484;2024-03-02T06:30:28;5.70;99.90
43665;DHT22;29263;48.172;11.484;2024-03-02T06:32:53;5.70;99.90
43665;DHT22;29263;48.172;11.484;2024-03-02T06:35:19;5.60;99.90
43665;DHT22;29263;48.172;11.484;2024-03-02T06:37:45;5.60;99.90
43665;DHT22;29263;48.172;11.484;2024-03-02T06:40:10;5.70;99.90
43665;DHT22;29263;48.172;11.484;2024-03-02T06:42:36;5.60;99.90
43665;DHT22;29263;48.172;11.484;2024-03-02T06:45:02;5.60;99.90
43665;DHT22;29263;48.172;11.484;2024-03-02T06:47:28;5.60;99.90
43665;DHT22;29263;48.172;11.484;2024-03-02T06:49:54;5.60;99.90
43665;DHT22;29263;48.172;11.484;2024-03-02T06:52:19;5.60;99.90
43665;DHT22;29263;48.172;11.484;2024-03-02T06:54:46;5.60;99.90
43665;DHT22;29263;48.172;11.484;2024-03-02T06:57:12;5.60;99.90
43665;DHT22;29263;48.172;11.484;2024-03-02T06:59:37;5.60;99.90
43665;DHT22;29263;48.172;11.484;2024-03-02T07:02:03;5.60;99.90
43665;DHT22;29263;48.172;11.484;2024-03-02T07:04:29;5.50;99.90
43665;DHT22;29263;48.172;11.484;2024-03-02T07:06:54;5.50;99.90
43665;DHT22;29263;48.172;11.484;2024-03-02T07:09:20;5.50;99.90
43665;DHT22;29263;48.172;11.484;2024-03-02T07:11:48;5.50;99.90
43665;DHT22;29263;48.172;11.484;2024-03-02T07:14:14;5.50;99.90
43665;DHT22;29263;48.172;11.484;2024-03-02T07:16:40;5.50;99.90
43665;DHT22;29263;48.172;11.484;2024-03-02T07:19:06;5.40;99.90
43665;DHT22;29263;48.172;11.484;2024-03-02T07:21:32;5.50;99.90
43665;DHT22;29263;48.172;11.484;2024-03-02T07:23:58;5.40;99.90
43665;DHT22;29263;48.172;11.484;2024-03-02T07:26:24;5.40;99.90
43665;DHT22;29263;48.172;11.484;2024-03-02T07:28:50;5.40;99.90
43665;DHT22;29263;48.172;11.484;2024-03-02T07:31:16;5.40;99.90
43665;DHT22;29263;48.172;11.484;2024-03-02T07:33:44;5.50;99.90
43665;DHT22;29263;48.172;11.484;2024-03-02T07:36:10;5.50;99.90
43665;DHT22;29263;48.172;11.484;2024-03-02T07:38:36;5.60;99.90
43665;DHT22;29263;48.172;11.484;2024-03-02T07:41:02;5.60;99.90
43665;DHT22;29263;48.172;11.484;2024-03-02T07:43:29;5.70;99.90
43665;DHT22;29263;48.172;11.484;2024-03-02T07:45:56;5.80;99.90
43665;DHT22;29263;48.172;11.484;2024-03-02T07:48:22;5.90;99.90
43665;DHT22;29263;48.172;11.484;2024-03-02T07:50:48;6.00;99.90
43665;DHT22;29263;48.172;11.484;2024-03-02T07:53:13;6.10;99.90
43665;DHT22;29263;48.172;11.484;2024-03-02T07:55:40;6.30;99.90
43665;DHT22;29263;48.172;11.484;2024-03-02T07:58:06;6.40;99.90
43665;DHT22;29263;48.172;11.484;2024-03-02T08:00:32;6.50;99.90
43665;DHT22;29263;48.172;11.484;2024-03-02T08:02:58;6.60;99.90
43665;DHT22;29263;48.172;11.484;2024-03-02T08:05:23;6.70;99.90
43665;DHT22;29263;48.172;11.484;2024-03-02T08:07:49;6.70;99.90
43665;DHT22;29263;48.172;11.484;2024-03-02T08:10:18;6.90;99.90
43665;DHT22;29263;48.172;11.484;2024-03-02T08:12:44;6.90;99.90
43665;DHT22;29263;48.172;11.484;2024-03-02T08:15:10;7.00;99.90
43665;DHT22;29263;48.172;11.484;2024-03-02T08:17:35;7.00;99.90
43665;DHT22;29263;48.172;11.484;2024-03-02T08:20:01;7.10;99.90
43665;DHT22;29263;48.172;11.484;2024-03-02T08:22:27;7.20;99.90
43665;DHT22;29263;48.172;11.484;2024-03-02T08:24:53;7.20;99.90
43665;DHT22;29263;48.172;11.484;2024-03-02T08:27:19;7.30;99.90
43665;DHT22;29263;48.172;11.484;2024-03-02T08:29:45;7.30;99.90
43665;DHT22;29263;48.172;11.484;2024-03-02T08:32:11;7.50;99.90
43665;DHT22;29263;48.172;11.484;2024-03-02T08:34:36;7.70;99.90
43665;DHT22;29263;48.172;11.484;2024-03-02T08:37:02;7.70;99.90
43665;DHT22;29263;48.172;11.484;2024-03-02T08:39:28;7.80;99.90
43665;DHT22;29263;48.172;11.484;2024-03-02T08:41:54;7.90;99.90
43665;DHT22;29263;48.172;11.484;2024-03-02T08:44:20;8.00;99.90
43665;DHT22;29263;48.172;11.484;2024-03-02T08:46:46;8.00;99.90
43665;DHT22;29263;48.172;11.484;2024-03-02T08:49:12;8.10;99.90
43665;DHT22;29263;48.172;11.484;2024-03-02T08:51:38;8.20;99.90
43665;DHT22;29263;48.172;11.484;2024-03-02T08:54:03;8.30;99.90
43665;DHT22;29263;48.172;11.484;2024-03-02T08:56:30;8.40;99.90
43665;DHT22;29263;48.172;11.484;2024-03-02T08:58:56;8.50;99.90
43665;DHT22;29263;48.172;11.484;2024-03-02T09:01:22;8.60;99.90
43665;DHT22;29263;48.172;11.484;2024-03-02T09:03:48;8.70;99.90
43665;DHT22;29263;48.172;11.484;2024-03-02T09:06:17;8.70;99.90
43665;DHT22;29263;48.172;11.484;2024-03-02T09:08:43;8.80;99.90
43665;DHT22;29263;48.172;11.484;2024-03-02T09:11:10;9.00;99.90
43665;DHT22;29263;48.172;11.484;2024-03-02T09:13:39;9.10;99.90
43665;DHT22;29263;48.172;11.484;2024-03-02T09:16:04;9.10;99.90
43665;DHT22;29263;48.172;11.484;2024-03-02T09:18:31;9.20;99.90
43665;DHT22;29263;48.172;11.484;2024-03-02T09:20:56;9.40;99.90
43665;DHT22;29263;48.172;11.484;2024-03-02T09:23:22;9.50;99.90
43665;DHT22;29263;48.172;11.484;2024-03-02T09:25:47;9.50;99.90
43665;DHT22;29263;48.172;11.484;2024-03-02T09:28:15;9.50;99.90
43665;DHT22;29263;48.172;11.484;2024-03-02T09:30:41;9.50;99.90
43665;DHT22;29263;48.172;11.484;2024-03-02T09:33:06;9.60;99.90
43665;DHT22;29263;48.172;11.484;2024-03-02T09:35:32;9.80;99.90
43665;DHT22;29263;48.172;11.484;2024-03-02T09:37:58;9.90;99.90
43665;DHT22;29263;48.172;11.484;2024-03-02T09:40:23;9.90;99.90
43665;DHT22;29263;48.172;11.484;2024-03-02T09:42:49;10.00;99.90
43665;DHT22;29263;48.172;11.484;2024-03-02T09:45:23;10.10;99.90
43665;DHT22;29263;48.172;11.484;2024-03-02T09:47:49;10.30;99.90
43665;DHT22;29263;48.172;11.484;2024-03-02T09:50:15;10.60;99.90
43665;DHT22;29263;48.172;11.484;2024-03-02T09:52:42;10.80;99.90
43665;DHT22;29263;48.172;11.484;2024-03-02T09:55:09;10.80;99.90
43665;DHT22;29263;48.172;11.484;2024-03-02T09:57:35;10.90;99.90
43665;DHT22;29263;48.172;11.484;2024-03-02T10:00:00;10.80;99.90
43665;DHT22;29263;48.172;11.484;2024-03-02T10:02:26;10.80;99.90
43665;DHT22;29263;48.172;11.484;2024-03-02T10:04:52;10.70;99.90
43665;DHT22;29263;48.172;11.484;2024-03-02T10:07:18;10.70;99.90
43665;DHT22;29263;48.172;11.484;2024-03-02T10:09:46;10.70;99.90
43665;DHT22;29263;48.172;11.484;2024-03-02T10:12:12;10.70;99.90
43665;DHT22;29263;48.172;11.484;2024-03-02T10:14:39;10.80;99.90
43665;DHT22;29263;48.172;11.484;2024-03-02T10:17:09;10.90;99.90
43665;DHT22;29263;48.172;11.484;2024-03-02T10:19:36;10.90;99.90
43665;DHT22;29263;48.172;11.484;2024-03-02T10:22:06;10.80;99.90
43665;DHT22;29263;48.172;11.484;2024-03-02T10:24:39;10.90;99.90
43665;DHT22;29263;48.172;11.484;2024-03-02T10:27:16;10.90;99.90
43665;DHT22;29263;48.172;11.484;2024-03-02T10:29:42;10.80;99.90
43665;DHT22;29263;48.172;11.484;2024-03-02T10:32:11;10.80;99.90
43665;DHT22;29263;48.172;11.484;2024-03-02T10:34:39;10.90;99.90
43665;DHT22;29263;48.172;11.484;2024-03-02T10:37:05;11.10;99.90
43665;DHT22;29263;48.172;11.484;2024-03-02T10:39:34;11.20;99.90
43665;DHT22;29263;48.172;11.484;2024-03-02T10:42:02;11.20;99.90
43665;DHT22;29263;48.172;11.484;2024-03-02T10:44:30;11.30;99.90
43665;DHT22;29263;48.172;11.484;2024-03-02T10:46:56;11.40;99.90
43665;DHT22;29263;48.172;11.484;2024-03-02T10:49:23;11.50;99.90
43665;DHT22;29263;48.172;11.484;2024-03-02T10:51:50;11.50;99.90
43665;DHT22;29263;48.172;11.484;2024-03-02T10:54:16;11.60;99.90
43665;DHT22;29263;48.172;11.484;2024-03-02T10:56:44;11.60;99.90
43665;DHT22;29263;48.172;11.484;2024-03-02T10:59:21;11.60;99.90
43665;DHT22;29263;48.172;11.484;2024-03-02T11:01:50;11.70;99.90
43665;DHT22;29263;48.172;11.484;2024-03-02T11:04:18;11.80;99.90
43665;DHT22;29263;48.172;11.484;2024-03-02T11:07:17;11.80;99.90
43665;DHT22;29263;48.172;11.484;2024-03-02T11:16:24;12.50;99.90
43665;DHT22;29263;48.172;11.484;2024-03-02T11:19:28;12.60;99.90
43665;DHT22;29263;48.172;11.484;2024-03-02T11:22:02;12.70;99.90
43665;DHT22;29263;48.172;11.484;2024-03-02T11:24:30;12.80;99.90
43665;DHT22;29263;48.172;11.484;2024-03-02T11:30:06;13.00;99.90
43665;DHT22;29263;48.172;11.484;2024-03-02T11:32:34;13.00;99.90
43665;DHT22;29263;48.172;11.484;2024-03-02T11:35:09;13.10;99.90
43665;DHT22;29263;48.172;11.484;2024-03-02T11:37:38;13.20;99.90
43665;DHT22;29263;48.172;11.484;2024-03-02T11:40:09;13.20;99.90
43665;DHT22;29263;48.172;11.484;2024-03-02T11:42:36;13.20;99.90
43665;DHT22;29263;48.172;11.484;2024-03-02T11:45:05;13.10;99.90
43665;DHT22;29263;48.172;11.484;2024-03-02T11:47:34;13.20;99.90
43665;DHT22;29263;48.172;11.484;2024-03-02T11:50:05;13.20;99.90
43665;DHT22;29263;48.172;11.484;2024-03-02T11:52:33;13.30;99.90
43665;DHT22;29263;48.172;11.484;2024-03-02T11:55:02;13.30;99.90
43665;DHT22;29263;48.172;11.484;2024-03-02T11:57:34;13.40;99.90
43665;DHT22;29263;48.172;11.484;2024-03-02T12:00:04;13.40;99.90
43665;DHT22;29263;48.172;11.484;2024-03-02T12:05:53;13.40;99.90
43665;DHT22;29263;48.172;11.484;2024-03-02T12:08:25;13.40;99.90
43665;DHT22;29263;48.172;11.484;2024-03-02T12:11:01;13.50;99.90
43665;DHT22;29263;48.172;11.484;2024-03-02T12:16:32;13.60;99.90
43665;DHT22;29263;48.172;11.484;2024-03-02T12:19:03;13.60;99.90
43665;DHT22;29263;48.172;11.484;2024-03-02T12:21:32;13.70;99.90
43665;DHT22;29263;48.172;11.484;2024-03-02T12:27:07;13.70;99.90
43665;DHT22;29263;48.172;11.484;2024-03-02T12:29:34;13.70;99.90
43665;DHT22;29263;48.172;11.484;2024-03-02T12:32:00;13.60;99.90
43665;DHT22;29263;48.172;11.484;2024-03-02T12:40:57;13.70;99.90
43665;DHT22;29263;48.172;11.484;2024-03-02T12:50:20;13.90;99.90
43665;DHT22;29263;48.172;11.484;2024-03-02T12:52:55;14.00;99.90
43665;DHT22;29263;48.172;11.484;2024-03-02T12:55:21;14.10;99.90
43665;DHT22;29263;48.172;11.484;2024-03-02T12:58:05;14.10;99.90
43665;DHT22;29263;48.172;11.484;2024-03-02T13:03:54;14.00;99.90
43665;DHT22;29263;48.172;11.484;2024-03-02T13:09:34;14.20;99.90
43665;DHT22;29263;48.172;11.484;2024-03-02T13:12:21;14.10;99.90
43665;DHT22;29263;48.172;11.484;2024-03-02T13:14:52;14.30;99.90
43665;DHT22;29263;48.172;11.484;2024-03-02T13:20:58;14.50;99.90
43665;DHT22;29263;48.172;11.484;2024-03-02T13:23:26;14.50;99.90
43665;DHT22;29263;48.172;11.484;2024-03-02T13:25:58;14.70;99.90
43665;DHT22;29263;48.172;11.484;2024-03-02T13:28:30;14.80;99.60
43665;DHT22;29263;48.172;11.484;2024-03-02T13:30:58;14.80;99.40
43665;DHT22;29263;48.172;11.484;2024-03-02T13:33:24;14.90;99.50
43665;DHT22;29263;48.172;11.484;2024-03-02T13:35:50;15.00;99.30
43665;DHT22;29263;48.172;11.484;2024-03-02T13:38:22;15.00;99.00
43665;DHT22;29263;48.172;11.484;2024-03-02T13:40:57;15.10;98.80
43665;DHT22;29263;48.172;11.484;2024-03-02T13:43:33;15.10;99.10
43665;DHT22;29263;48.172;11.484;2024-03-02T13:46:31;15.00;99.10
43665;DHT22;29263;48.172;11.484;2024-03-02T13:49:25;14.90;98.00
43665;DHT22;29263;48.172;11.484;2024-03-02T13:52:01;14.80;99.30
43665;DHT22;29263;48.172;11.484;2024-03-02T13:54:29;15.00;98.50
43665;DHT22;29263;48.172;11.484;2024-03-02T13:56:56;15.20;98.00
43665;DHT22;29263;48.172;11.484;2024-03-02T13:59:24;15.20;98.10
43665;DHT22;29263;48.172;11.484;2024-03-02T14:01:50;15.30;97.10
43665;DHT22;29263;48.172;11.484;2024-03-02T14:04:16;15.50;96.20
43665;DHT22;29263;48.172;11.484;2024-03-02T14:06:51;15.50;96.60
43665;DHT22;29263;48.172;11.484;2024-03-02T14:09:43;15.50;96.30
43665;DHT22;29263;48.172;11.484;2024-03-02T14:12:18;15.80;96.30
43665;DHT22;29263;48.172;11.484;2024-03-02T14:14:43;16.10;96.10
43665;DHT22;29263;48.172;11.484;2024-03-02T14:17:09;16.40;95.00
43665;DHT22;29263;48.172;11.484;2024-03-02T14:19:40;16.80;94.00
43665;DHT22;29263;48.172;11.484;2024-03-02T14:22:05;17.40;92.80
43665;DHT22;29263;48.172;11.484;2024-03-02T14:24:31;18.10;90.20
43665;DHT22;29263;48.172;11.484;2024-03-02T14:26:56;18.50;87.70
43665;DHT22;29263;48.172;11.484;2024-03-02T14:29:28;19.20;83.90
43665;DHT22;29263;48.172;11.484;2024-03-02T14:31:54;19.70;79.20
43665;DHT22;29263;48.172;11.484;2024-03-02T14:34:19;20.20;75.00
43665;DHT22;29263;48.172;11.484;2024-03-02T14:36:45;20.60;74.00
43665;DHT22;29263;48.172;11.484;2024-03-02T14:39:11;20.90;71.50
43665;DHT22;29263;48.172;11.484;2024-03-02T14:41:37;21.60;69.30
43665;DHT22;29263;48.172;11.484;2024-03-02T14:44:03;22.00;66.80
43665;DHT22;29263;48.172;11.484;2024-03-02T14:46:29;22.30;65.10
43665;DHT22;29263;48.172;11.484;2024-03-02T14:48:55;22.10;65.00
43665;DHT22;29263;48.172;11.484;2024-03-02T14:51:20;22.20;64.90
43665;DHT22;29263;48.172;11.484;2024-03-02T14:53:46;22.00;63.50
43665;DHT22;29263;48.172;11.484;2024-03-02T14:56:12;22.10;63.00
43665;DHT22;29263;48.172;11.484;2024-03-02T14:58:39;21.70;63.40
43665;DHT22;29263;48.172;11.484;2024-03-02T15:01:05;21.80;63.30
43665;DHT22;29263;48.172;11.484;2024-03-02T15:03:35;21.50;64.10
43665;DHT22;29263;48.172;11.484;2024-03-02T15:06:01;21.40;63.20
43665;DHT22;29263;48.172;11.484;2024-03-02T15:08:28;20.80;64.90
43665;DHT22;29263;48.172;11.484;2024-03-02T15:10:54;20.20;65.70
43665;DHT22;29263;48.172;11.484;2024-03-02T15:13:23;19.20;68.50
43665;DHT22;29263;48.172;11.484;2024-03-02T15:15:50;18.30;70.70
43665;DHT22;29263;48.172;11.484;2024-03-02T15:18:16;17.50;73.70
43665;DHT22;29263;48.172;11.484;2024-03-02T15:20:41;17.10;75.20
43665;DHT22;29263;48.172;11.484;2024-03-02T15:23:07;16.90;77.10
43665;DHT22;29263;48.172;11.484;2024-03-02T15:25:33;16.70;76.70
43665;DHT22;29263;48.172;11.484;2024-03-02T15:27:58;16.50;78.00
43665;DHT22;29263;48.172;11.484;2024-03-02T15:30:24;16.60;78.20
43665;DHT22;29263;48.172;11.484;2024-03-02T15:32:50;16.80;78.00
43665;DHT22;29263;48.172;11.484;2024-03-02T15:35:15;17.10;77.10
43665;DHT22;29263;48.172;11.484;2024-03-02T15:37:41;17.10;76.90
43665;DHT22;29263;48.172;11.484;2024-03-02T15:40:07;16.80;77.70
43665;DHT22;29263;48.172;11.484;2024-03-02T15:42:33;16.30;80.00
43665;DHT22;29263;48.172;11.484;2024-03-02T15:44:59;15.80;82.60
43665;DHT22;29263;48.172;11.484;2024-03-02T15:47:26;15.50;83.80
43665;DHT22;29263;48.172;11.484;2024-03-02T15:49:51;15.20;85.90
43665;DHT22;29263;48.172;11.484;2024-03-02T15:52:17;15.00;85.80
43665;DHT22;29263;48.172;11.484;2024-03-02T15:54:44;14.70;87.50
43665;DHT22;29263;48.172;11.484;2024-03-02T15:57:10;14.40;89.20
43665;DHT22;29263;48.172;11.484;2024-03-02T15:59:43;14.00;90.70
43665;DHT22;29263;48.172;11.484;2024-03-02T16:02:35;13.80;91.60
43665;DHT22;29263;48.172;11.484;2024-03-02T16:05:22;13.70;92.40
43665;DHT22;29263;48.172;11.484;2024-03-02T16:08:20;13.60;93.20
43665;DHT22;29263;48.172;11.484;2024-03-02T16:10:49;13.50;93.90
43665;DHT22;29263;48.172;11.484;2024-03-02T16:13:16;13.20;95.10
43665;DHT22;29263;48.172;11.484;2024-03-02T16:15:42;13.10;95.60